sensor_id;sensor_type;location;lat;lon;timestamp;P1;durP1;ratioP1;P2;durP2;ratioP2
59766;SDS011;46248;58.364;25.582;2022-07-09T00:00:28;5.15;;;4.15;;
59766;SDS011;46248;58.364;25.582;2022-07-09T00:03:50;7.47;;;4.80;;
59766;SDS011;46248;58.364;25.582;2022-07-09T00:07:13;6.53;;;3.97;;
59766;SDS011;46248;58.364;25.582;2022-07-09T00:10:34;6.70;;;3.88;;
59766;SDS011;46248;58.364;25.582;2022-07-09T00:13:56;3.92;;;3.30;;
59766;SDS011;46248;58.364;25.582;2022-07-09T00:17:20;5.20;;;3.63;;
59766;SDS011;46248;58.364;25.582;2022-07-09T00:20:42;5.45;;;4.00;;
59766;SDS011;46248;58.364;25.582;2022-07-09T00:24:04;4.10;;;3.70;;
59766;SDS011;46248;58.364;25.582;2022-07-09T00:27:27;6.22;;;3.50;;
59766;SDS011;46248;58.364;25.582;2022-07-09T00:30:49;5.13;;;3.33;;
59766;SDS011;46248;58.364;25.582;2022-07-09T00:34:12;7.03;;;4.00;;
59766;SDS011;46248;58.364;25.582;2022-07-09T00:37:34;5.60;;;3.75;;
59766;SDS011;46248;58.364;25.582;2022-07-09T00:40:56;5.22;;;3.55;;
59766;SDS011;46248;58.364;25.582;2022-07-09T00:44:18;4.45;;;3.88;;
59766;SDS011;46248;58.364;25.582;2022-07-09T00:47:40;3.65;;;3.08;;
59766;SDS011;46248;58.364;25.582;2022-07-09T00:51:04;4.65;;;3.47;;
59766;SDS011;46248;58.364;25.582;2022-07-09T00:54:26;5.90;;;3.08;;
59766;SDS011;46248;58.364;25.582;2022-07-09T00:57:48;4.22;;;3.25;;
59766;SDS011;46248;58.364;25.582;2022-07-09T01:01:10;6.93;;;3.20;;
59766;SDS011;46248;58.364;25.582;2022-07-09T01:04:32;6.55;;;3.50;;
59766;SDS011;46248;58.364;25.582;2022-07-09T01:07:55;6.30;;;3.15;;
59766;SDS011;46248;58.364;25.582;2022-07-09T01:11:17;5.35;;;2.95;;
59766;SDS011;46248;58.364;25.582;2022-07-09T01:14:40;3.15;;;2.80;;
59766;SDS011;46248;58.364;25.582;2022-07-09T01:18:02;7.75;;;3.17;;
59766;SDS011;46248;58.364;25.582;2022-07-09T01:21:25;5.00;;;2.97;;
59766;SDS011;46248;58.364;25.582;2022-07-09T01:24:48;6.70;;;2.90;;
59766;SDS011;46248;58.364;25.582;2022-07-09T01:28:11;3.10;;;2.90;;
59766;SDS011;46248;58.364;25.582;2022-07-09T01:31:33;3.15;;;2.95;;
59766;SDS011;46248;58.364;25.582;2022-07-09T01:34:55;3.22;;;2.90;;
59766;SDS011;46248;58.364;25.582;2022-07-09T01:38:18;4.15;;;2.80;;
59766;SDS011;46248;58.364;25.582;2022-07-09T01:41:41;2.95;;;2.60;;
59766;SDS011;46248;58.364;25.582;2022-07-09T01:45:04;7.22;;;2.83;;
59766;SDS011;46248;58.364;25.582;2022-07-09T01:48:27;3.85;;;3.08;;
59766;SDS011;46248;58.364;25.582;2022-07-09T01:51:50;5.22;;;3.45;;
59766;SDS011;46248;58.364;25.582;2022-07-09T01:55:14;8.07;;;3.30;;
59766;SDS011;46248;58.364;25.582;2022-07-09T01:58:36;4.57;;;3.00;;
59766;SDS011;46248;58.364;25.582;2022-07-09T02:01:58;3.47;;;3.03;;
59766;SDS011;46248;58.364;25.582;2022-07-09T02:05:21;3.85;;;2.90;;
59766;SDS011;46248;58.364;25.582;2022-07-09T02:08:44;5.85;;;3.35;;
59766;SDS011;46248;58.364;25.582;2022-07-09T02:12:08;5.03;;;3.20;;
59766;SDS011;46248;58.364;25.582;2022-07-09T02:15:30;6.40;;;3.45;;
59766;SDS011;46248;58.364;25.582;2022-07-09T02:18:52;4.47;;;3.08;;
59766;SDS011;46248;58.364;25.582;2022-07-09T02:22:13;5.05;;;3.35;;
59766;SDS011;46248;58.364;25.582;2022-07-09T02:25:36;6.97;;;3.42;;
59766;SDS011;46248;58.364;25.582;2022-07-09T02:28:59;4.22;;;3.60;;
59766;SDS011;46248;58.364;25.582;2022-07-09T02:32:22;5.03;;;3.80;;
59766;SDS011;46248;58.364;25.582;2022-07-09T02:35:45;4.22;;;3.58;;
59766;SDS011;46248;58.364;25.582;2022-07-09T02:39:07;6.40;;;3.47;;
59766;SDS011;46248;58.364;25.582;2022-07-09T02:42:28;4.95;;;3.42;;
59766;SDS011;46248;58.364;25.582;2022-07-09T02:45:52;3.75;;;3.35;;
59766;SDS011;46248;58.364;25.582;2022-07-09T02:49:15;4.35;;;2.83;;
59766;SDS011;46248;58.364;25.582;2022-07-09T02:52:38;4.68;;;3.85;;
59766;SDS011;46248;58.364;25.582;2022-07-09T02:55:59;6.22;;;3.58;;
59766;SDS011;46248;58.364;25.582;2022-07-09T02:59:21;5.35;;;3.35;;
59766;SDS011;46248;58.364;25.582;2022-07-09T03:02:45;8.40;;;4.57;;
59766;SDS011;46248;58.364;25.582;2022-07-09T03:06:07;6.50;;;4.20;;
59766;SDS011;46248;58.364;25.582;2022-07-09T03:09:29;4.85;;;3.65;;
59766;SDS011;46248;58.364;25.582;2022-07-09T03:12:51;7.15;;;3.92;;
59766;SDS011;46248;58.364;25.582;2022-07-09T03:16:13;7.75;;;3.58;;
59766;SDS011;46248;58.364;25.582;2022-07-09T03:19:36;6.63;;;3.65;;
59766;SDS011;46248;58.364;25.582;2022-07-09T03:22:58;6.93;;;4.20;;
59766;SDS011;46248;58.364;25.582;2022-07-09T03:26:21;6.75;;;4.20;;
59766;SDS011;46248;58.364;25.582;2022-07-09T03:29:43;6.13;;;4.40;;
59766;SDS011;46248;58.364;25.582;2022-07-09T03:33:05;23.38;;;11.85;;
59766;SDS011;46248;58.364;25.582;2022-07-09T03:36:28;14.25;;;10.55;;
59766;SDS011;46248;58.364;25.582;2022-07-09T03:39:50;9.40;;;6.13;;
59766;SDS011;46248;58.364;25.582;2022-07-09T03:43:12;9.35;;;5.60;;
59766;SDS011;46248;58.364;25.582;2022-07-09T03:46:34;6.82;;;4.70;;
59766;SDS011;46248;58.364;25.582;2022-07-09T03:49:56;7.43;;;6.72;;
59766;SDS011;46248;58.364;25.582;2022-07-09T03:53:20;7.85;;;5.53;;
59766;SDS011;46248;58.364;25.582;2022-07-09T03:56:42;9.35;;;5.05;;
59766;SDS011;46248;58.364;25.582;2022-07-09T04:00:04;9.88;;;5.55;;
59766;SDS011;46248;58.364;25.582;2022-07-09T04:03:27;7.57;;;5.07;;
59766;SDS011;46248;58.364;25.582;2022-07-09T04:06:49;8.30;;;5.10;;
59766;SDS011;46248;58.364;25.582;2022-07-09T04:10:12;11.00;;;6.35;;
59766;SDS011;46248;58.364;25.582;2022-07-09T04:13:34;9.27;;;6.88;;
59766;SDS011;46248;58.364;25.582;2022-07-09T04:16:56;5.60;;;4.63;;
59766;SDS011;46248;58.364;25.582;2022-07-09T04:20:18;9.05;;;5.07;;
59766;SDS011;46248;58.364;25.582;2022-07-09T04:23:43;14.70;;;12.85;;
59766;SDS011;46248;58.364;25.582;2022-07-09T04:27:07;11.52;;;9.93;;
59766;SDS011;46248;58.364;25.582;2022-07-09T04:30:29;5.95;;;5.25;;
59766;SDS011;46248;58.364;25.582;2022-07-09T04:33:50;12.25;;;5.78;;
59766;SDS011;46248;58.364;25.582;2022-07-09T04:37:12;8.88;;;6.03;;
59766;SDS011;46248;58.364;25.582;2022-07-09T04:40:34;6.70;;;4.90;;
59766;SDS011;46248;58.364;25.582;2022-07-09T04:43:58;7.85;;;4.50;;
59766;SDS011;46248;58.364;25.582;2022-07-09T04:47:20;6.28;;;5.55;;
59766;SDS011;46248;58.364;25.582;2022-07-09T04:50:42;6.95;;;5.32;;
59766;SDS011;46248;58.364;25.582;2022-07-09T04:54:04;7.65;;;6.80;;
59766;SDS011;46248;58.364;25.582;2022-07-09T04:57:26;7.60;;;6.07;;
59766;SDS011;46248;58.364;25.582;2022-07-09T05:00:49;7.80;;;6.72;;
59766;SDS011;46248;58.364;25.582;2022-07-09T05:04:11;8.27;;;7.15;;
59766;SDS011;46248;58.364;25.582;2022-07-09T05:07:34;8.43;;;7.22;;
59766;SDS011;46248;58.364;25.582;2022-07-09T05:10:56;12.18;;;8.02;;
59766;SDS011;46248;58.364;25.582;2022-07-09T05:14:18;7.70;;;5.85;;
59766;SDS011;46248;58.364;25.582;2022-07-09T05:17:41;10.93;;;8.05;;
59766;SDS011;46248;58.364;25.582;2022-07-09T05:21:04;11.35;;;8.07;;
59766;SDS011;46248;58.364;25.582;2022-07-09T05:24:27;11.85;;;6.25;;
59766;SDS011;46248;58.364;25.582;2022-07-09T05:27:48;11.00;;;7.63;;
59766;SDS011;46248;58.364;25.582;2022-07-09T05:31:10;8.10;;;6.95;;
59766;SDS011;46248;58.364;25.582;2022-07-09T05:34:54;8.00;;;7.00;;
59766;SDS011;46248;58.364;25.582;2022-07-09T05:38:16;8.80;;;7.10;;
59766;SDS011;46248;58.364;25.582;2022-07-09T05:41:38;8.55;;;6.03;;
59766;SDS011;46248;58.364;25.582;2022-07-09T05:45:00;7.03;;;6.22;;
59766;SDS011;46248;58.364;25.582;2022-07-09T05:48:22;10.88;;;8.00;;
59766;SDS011;46248;58.364;25.582;2022-07-09T05:51:45;12.70;;;6.70;;
59766;SDS011;46248;58.364;25.582;2022-07-09T05:55:08;7.72;;;6.90;;
59766;SDS011;46248;58.364;25.582;2022-07-09T05:58:30;8.13;;;7.03;;
59766;SDS011;46248;58.364;25.582;2022-07-09T06:01:53;9.50;;;6.95;;
59766;SDS011;46248;58.364;25.582;2022-07-09T06:05:14;7.90;;;5.60;;
59766;SDS011;46248;58.364;25.582;2022-07-09T06:08:41;5.93;;;4.88;;
59766;SDS011;46248;58.364;25.582;2022-07-09T06:12:03;7.45;;;5.57;;
59766;SDS011;46248;58.364;25.582;2022-07-09T06:15:26;6.60;;;5.95;;
59766;SDS011;46248;58.364;25.582;2022-07-09T06:18:48;7.60;;;6.10;;
59766;SDS011;46248;58.364;25.582;2022-07-09T06:22:09;5.82;;;5.22;;
59766;SDS011;46248;58.364;25.582;2022-07-09T06:25:33;5.28;;;4.70;;
59766;SDS011;46248;58.364;25.582;2022-07-09T06:28:55;6.30;;;5.75;;
59766;SDS011;46248;58.364;25.582;2022-07-09T06:32:17;5.20;;;4.70;;
59766;SDS011;46248;58.364;25.582;2022-07-09T06:35:39;6.07;;;4.53;;
59766;SDS011;46248;58.364;25.582;2022-07-09T06:39:00;4.72;;;4.18;;
59766;SDS011;46248;58.364;25.582;2022-07-09T06:42:42;4.88;;;4.30;;
59766;SDS011;46248;58.364;25.582;2022-07-09T06:46:04;4.53;;;4.13;;
59766;SDS011;46248;58.364;25.582;2022-07-09T06:49:26;5.45;;;4.53;;
59766;SDS011;46248;58.364;25.582;2022-07-09T06:52:48;4.15;;;3.72;;
59766;SDS011;46248;58.364;25.582;2022-07-09T06:56:10;4.10;;;3.65;;
59766;SDS011;46248;58.364;25.582;2022-07-09T06:59:33;5.30;;;3.85;;
59766;SDS011;46248;58.364;25.582;2022-07-09T07:02:55;4.18;;;3.67;;
59766;SDS011;46248;58.364;25.582;2022-07-09T07:06:20;6.55;;;4.28;;
59766;SDS011;46248;58.364;25.582;2022-07-09T07:09:42;7.55;;;4.85;;
59766;SDS011;46248;58.364;25.582;2022-07-09T07:13:04;10.95;;;4.80;;
59766;SDS011;46248;58.364;25.582;2022-07-09T07:16:27;7.72;;;4.70;;
59766;SDS011;46248;58.364;25.582;2022-07-09T07:19:49;5.03;;;3.63;;
59766;SDS011;46248;58.364;25.582;2022-07-09T07:23:11;3.90;;;3.15;;
59766;SDS011;46248;58.364;25.582;2022-07-09T07:26:34;5.93;;;4.00;;
59766;SDS011;46248;58.364;25.582;2022-07-09T07:29:57;4.35;;;3.38;;
59766;SDS011;46248;58.364;25.582;2022-07-09T07:33:20;3.80;;;3.47;;
59766;SDS011;46248;58.364;25.582;2022-07-09T07:36:42;3.45;;;3.25;;
59766;SDS011;46248;58.364;25.582;2022-07-09T07:40:05;4.75;;;3.30;;
59766;SDS011;46248;58.364;25.582;2022-07-09T07:43:30;3.47;;;2.38;;
59766;SDS011;46248;58.364;25.582;2022-07-09T07:46:52;3.58;;;2.85;;
59766;SDS011;46248;58.364;25.582;2022-07-09T07:50:15;2.60;;;2.40;;
59766;SDS011;46248;58.364;25.582;2022-07-09T07:53:37;4.70;;;3.30;;
59766;SDS011;46248;58.364;25.582;2022-07-09T07:56:59;6.03;;;4.38;;
59766;SDS011;46248;58.364;25.582;2022-07-09T08:00:21;5.32;;;3.17;;
59766;SDS011;46248;58.364;25.582;2022-07-09T08:03:43;3.60;;;3.35;;
59766;SDS011;46248;58.364;25.582;2022-07-09T08:07:06;3.53;;;3.22;;
59766;SDS011;46248;58.364;25.582;2022-07-09T08:10:28;3.35;;;3.15;;
59766;SDS011;46248;58.364;25.582;2022-07-09T08:13:55;3.50;;;2.83;;
59766;SDS011;46248;58.364;25.582;2022-07-09T08:17:16;4.75;;;2.80;;
59766;SDS011;46248;58.364;25.582;2022-07-09T08:20:38;3.40;;;2.40;;
59766;SDS011;46248;58.364;25.582;2022-07-09T08:24:03;3.45;;;2.40;;
59766;SDS011;46248;58.364;25.582;2022-07-09T08:27:26;3.08;;;2.72;;
59766;SDS011;46248;58.364;25.582;2022-07-09T08:30:48;5.38;;;3.67;;
59766;SDS011;46248;58.364;25.582;2022-07-09T08:34:09;7.15;;;2.72;;
59766;SDS011;46248;58.364;25.582;2022-07-09T08:37:32;8.77;;;4.50;;
59766;SDS011;46248;58.364;25.582;2022-07-09T08:40:55;3.28;;;2.40;;
59766;SDS011;46248;58.364;25.582;2022-07-09T08:44:20;3.17;;;2.05;;
59766;SDS011;46248;58.364;25.582;2022-07-09T08:47:47;3.80;;;2.15;;
59766;SDS011;46248;58.364;25.582;2022-07-09T08:51:09;3.75;;;2.10;;
59766;SDS011;46248;58.364;25.582;2022-07-09T08:54:32;1.75;;;1.63;;
59766;SDS011;46248;58.364;25.582;2022-07-09T08:57:57;2.47;;;1.85;;
59766;SDS011;46248;58.364;25.582;2022-07-09T09:01:19;2.25;;;1.40;;
59766;SDS011;46248;58.364;25.582;2022-07-09T09:04:41;1.50;;;1.40;;
59766;SDS011;46248;58.364;25.582;2022-07-09T09:08:16;7.18;;;2.63;;
59766;SDS011;46248;58.364;25.582;2022-07-09T09:11:39;6.88;;;2.42;;
59766;SDS011;46248;58.364;25.582;2022-07-09T09:15:05;6.35;;;1.92;;
59766;SDS011;46248;58.364;25.582;2022-07-09T09:18:29;5.90;;;2.50;;
59766;SDS011;46248;58.364;25.582;2022-07-09T09:21:51;2.80;;;1.58;;
59766;SDS011;46248;58.364;25.582;2022-07-09T09:25:15;2.28;;;1.30;;
59766;SDS011;46248;58.364;25.582;2022-07-09T09:28:45;1.27;;;1.00;;
59766;SDS011;46248;58.364;25.582;2022-07-09T09:32:10;1.67;;;0.90;;
59766;SDS011;46248;58.364;25.582;2022-07-09T09:35:35;1.58;;;1.10;;
59766;SDS011;46248;58.364;25.582;2022-07-09T09:42:40;0.70;;;0.70;;
59766;SDS011;46248;58.364;25.582;2022-07-09T09:46:03;0.73;;;0.60;;
59766;SDS011;46248;58.364;25.582;2022-07-09T09:49:28;0.88;;;0.60;;
59766;SDS011;46248;58.364;25.582;2022-07-09T09:52:50;1.13;;;0.40;;
59766;SDS011;46248;58.364;25.582;2022-07-09T09:56:14;2.13;;;1.02;;
59766;SDS011;46248;58.364;25.582;2022-07-09T09:59:39;1.65;;;0.80;;
59766;SDS011;46248;58.364;25.582;2022-07-09T10:03:01;1.00;;;1.00;;
59766;SDS011;46248;58.364;25.582;2022-07-09T10:06:26;0.80;;;0.80;;
59766;SDS011;46248;58.364;25.582;2022-07-09T10:09:55;1.65;;;1.30;;
59766;SDS011;46248;58.364;25.582;2022-07-09T10:13:19;1.10;;;1.00;;
59766;SDS011;46248;58.364;25.582;2022-07-09T10:16:42;0.88;;;0.73;;
59766;SDS011;46248;58.364;25.582;2022-07-09T10:20:04;1.45;;;0.93;;
59766;SDS011;46248;58.364;25.582;2022-07-09T10:23:29;2.22;;;0.90;;
59766;SDS011;46248;58.364;25.582;2022-07-09T10:26:52;2.13;;;0.70;;
59766;SDS011;46248;58.364;25.582;2022-07-09T10:30:23;2.70;;;0.60;;
59766;SDS011;46248;58.364;25.582;2022-07-09T10:33:48;0.32;;;0.32;;
59766;SDS011;46248;58.364;25.582;2022-07-09T10:37:15;0.88;;;0.50;;
59766;SDS011;46248;58.364;25.582;2022-07-09T10:40:39;2.33;;;0.50;;
59766;SDS011;46248;58.364;25.582;2022-07-09T10:44:02;2.35;;;0.40;;
59766;SDS011;46248;58.364;25.582;2022-07-09T10:47:36;0.30;;;0.30;;
59766;SDS011;46248;58.364;25.582;2022-07-09T10:50:58;0.75;;;0.40;;
59766;SDS011;46248;58.364;25.582;2022-07-09T10:54:20;0.40;;;0.40;;
59766;SDS011;46248;58.364;25.582;2022-07-09T10:57:43;0.70;;;0.45;;
59766;SDS011;46248;58.364;25.582;2022-07-09T11:01:05;0.30;;;0.30;;
59766;SDS011;46248;58.364;25.582;2022-07-09T11:04:29;2.22;;;0.40;;
59766;SDS011;46248;58.364;25.582;2022-07-09T11:07:58;1.00;;;0.32;;
59766;SDS011;46248;58.364;25.582;2022-07-09T11:11:22;0.85;;;0.52;;
59766;SDS011;46248;58.364;25.582;2022-07-09T11:14:46;0.73;;;0.73;;
59766;SDS011;46248;58.364;25.582;2022-07-09T11:18:09;1.63;;;0.40;;
59766;SDS011;46248;58.364;25.582;2022-07-09T11:21:32;1.73;;;0.55;;
59766;SDS011;46248;58.364;25.582;2022-07-09T11:24:56;1.13;;;0.50;;
59766;SDS011;46248;58.364;25.582;2022-07-09T11:28:18;2.00;;;1.15;;
59766;SDS011;46248;58.364;25.582;2022-07-09T11:31:49;1.08;;;0.85;;
59766;SDS011;46248;58.364;25.582;2022-07-09T11:35:12;0.88;;;0.20;;
59766;SDS011;46248;58.364;25.582;2022-07-09T11:38:46;1.40;;;1.30;;
59766;SDS011;46248;58.364;25.582;2022-07-09T11:42:09;1.55;;;0.93;;
59766;SDS011;46248;58.364;25.582;2022-07-09T11:45:38;0.50;;;0.35;;
59766;SDS011;46248;58.364;25.582;2022-07-09T11:49:02;3.28;;;0.47;;
59766;SDS011;46248;58.364;25.582;2022-07-09T11:52:24;3.33;;;1.83;;
59766;SDS011;46248;58.364;25.582;2022-07-09T11:55:56;0.70;;;0.70;;
59766;SDS011;46248;58.364;25.582;2022-07-09T11:59:25;10.38;;;6.78;;
59766;SDS011;46248;58.364;25.582;2022-07-09T12:02:47;16.00;;;12.77;;
59766;SDS011;46248;58.364;25.582;2022-07-09T12:06:10;5.18;;;3.00;;
59766;SDS011;46248;58.364;25.582;2022-07-09T12:09:34;7.45;;;3.55;;
59766;SDS011;46248;58.364;25.582;2022-07-09T12:12:56;1.02;;;0.90;;
59766;SDS011;46248;58.364;25.582;2022-07-09T12:16:18;2.17;;;2.08;;
59766;SDS011;46248;58.364;25.582;2022-07-09T12:19:40;2.10;;;1.23;;
59766;SDS011;46248;58.364;25.582;2022-07-09T12:23:04;0.90;;;0.50;;
59766;SDS011;46248;58.364;25.582;2022-07-09T12:26:26;2.40;;;0.93;;
59766;SDS011;46248;58.364;25.582;2022-07-09T12:29:48;3.83;;;3.50;;
59766;SDS011;46248;58.364;25.582;2022-07-09T12:33:10;1.48;;;0.98;;
59766;SDS011;46248;58.364;25.582;2022-07-09T12:36:32;1.08;;;0.90;;
59766;SDS011;46248;58.364;25.582;2022-07-09T12:40:15;1.35;;;1.25;;
59766;SDS011;46248;58.364;25.582;2022-07-09T12:43:37;1.20;;;1.17;;
59766;SDS011;46248;58.364;25.582;2022-07-09T12:46:59;6.13;;;4.10;;
59766;SDS011;46248;58.364;25.582;2022-07-09T12:50:21;1.20;;;1.10;;
59766;SDS011;46248;58.364;25.582;2022-07-09T12:53:44;2.78;;;1.70;;
59766;SDS011;46248;58.364;25.582;2022-07-09T12:57:07;20.00;;;6.80;;
59766;SDS011;46248;58.364;25.582;2022-07-09T13:00:29;3.05;;;1.33;;
59766;SDS011;46248;58.364;25.582;2022-07-09T13:03:51;1.88;;;0.90;;
59766;SDS011;46248;58.364;25.582;2022-07-09T13:07:31;1.90;;;1.15;;
59766;SDS011;46248;58.364;25.582;2022-07-09T13:10:53;4.13;;;3.53;;
59766;SDS011;46248;58.364;25.582;2022-07-09T13:14:16;3.30;;;1.48;;
59766;SDS011;46248;58.364;25.582;2022-07-09T13:17:38;2.05;;;0.70;;
59766;SDS011;46248;58.364;25.582;2022-07-09T13:21:01;4.10;;;1.27;;
59766;SDS011;46248;58.364;25.582;2022-07-09T13:24:22;3.03;;;2.17;;
59766;SDS011;46248;58.364;25.582;2022-07-09T13:27:44;7.93;;;5.13;;
59766;SDS011;46248;58.364;25.582;2022-07-09T13:31:07;3.13;;;1.80;;
59766;SDS011;46248;58.364;25.582;2022-07-09T13:34:29;2.30;;;1.90;;
59766;SDS011;46248;58.364;25.582;2022-07-09T13:37:51;1.27;;;0.90;;
59766;SDS011;46248;58.364;25.582;2022-07-09T13:41:13;1.98;;;1.88;;
59766;SDS011;46248;58.364;25.582;2022-07-09T13:44:37;0.88;;;0.70;;
59766;SDS011;46248;58.364;25.582;2022-07-09T13:48:00;0.50;;;0.50;;
59766;SDS011;46248;58.364;25.582;2022-07-09T13:51:22;1.15;;;0.60;;
59766;SDS011;46248;58.364;25.582;2022-07-09T13:54:44;1.75;;;1.60;;
59766;SDS011;46248;58.364;25.582;2022-07-09T13:58:06;1.75;;;0.95;;
59766;SDS011;46248;58.364;25.582;2022-07-09T14:01:29;0.80;;;0.80;;
59766;SDS011;46248;58.364;25.582;2022-07-09T14:04:53;1.42;;;0.80;;
59766;SDS011;46248;58.364;25.582;2022-07-09T14:08:15;1.27;;;0.68;;
59766;SDS011;46248;58.364;25.582;2022-07-09T14:11:39;2.45;;;0.55;;
59766;SDS011;46248;58.364;25.582;2022-07-09T14:15:01;0.50;;;0.50;;
59766;SDS011;46248;58.364;25.582;2022-07-09T14:18:24;3.65;;;0.60;;
59766;SDS011;46248;58.364;25.582;2022-07-09T14:21:47;1.45;;;0.45;;
59766;SDS011;46248;58.364;25.582;2022-07-09T14:25:09;0.30;;;0.30;;
59766;SDS011;46248;58.364;25.582;2022-07-09T14:28:31;2.20;;;0.57;;
59766;SDS011;46248;58.364;25.582;2022-07-09T14:31:53;4.35;;;2.10;;
59766;SDS011;46248;58.364;25.582;2022-07-09T14:35:15;3.00;;;2.28;;
59766;SDS011;46248;58.364;25.582;2022-07-09T14:38:39;0.82;;;0.80;;
59766;SDS011;46248;58.364;25.582;2022-07-09T14:42:01;5.07;;;2.42;;
59766;SDS011;46248;58.364;25.582;2022-07-09T14:45:23;7.22;;;4.07;;
59766;SDS011;46248;58.364;25.582;2022-07-09T14:48:46;71.22;;;27.27;;
59766;SDS011;46248;58.364;25.582;2022-07-09T14:52:12;4.03;;;3.00;;
59766;SDS011;46248;58.364;25.582;2022-07-09T14:55:36;3.00;;;2.70;;
59766;SDS011;46248;58.364;25.582;2022-07-09T14:58:58;4.40;;;2.17;;
59766;SDS011;46248;58.364;25.582;2022-07-09T15:02:20;6.35;;;2.22;;
59766;SDS011;46248;58.364;25.582;2022-07-09T15:05:42;2.65;;;1.45;;
59766;SDS011;46248;58.364;25.582;2022-07-09T15:09:04;3.92;;;2.47;;
59766;SDS011;46248;58.364;25.582;2022-07-09T15:12:28;1.92;;;1.05;;
59766;SDS011;46248;58.364;25.582;2022-07-09T15:15:50;2.10;;;1.10;;
59766;SDS011;46248;58.364;25.582;2022-07-09T15:19:12;3.95;;;1.27;;
59766;SDS011;46248;58.364;25.582;2022-07-09T15:22:34;4.55;;;1.15;;
59766;SDS011;46248;58.364;25.582;2022-07-09T15:25:55;2.13;;;1.40;;
59766;SDS011;46248;58.364;25.582;2022-07-09T15:29:19;5.55;;;1.60;;
59766;SDS011;46248;58.364;25.582;2022-07-09T15:32:41;5.78;;;1.48;;
59766;SDS011;46248;58.364;25.582;2022-07-09T15:36:04;10.05;;;1.40;;
59766;SDS011;46248;58.364;25.582;2022-07-09T15:39:27;2.95;;;1.85;;
59766;SDS011;46248;58.364;25.582;2022-07-09T15:42:49;2.25;;;1.55;;
59766;SDS011;46248;58.364;25.582;2022-07-09T15:46:12;3.13;;;1.23;;
59766;SDS011;46248;58.364;25.582;2022-07-09T15:49:34;2.75;;;2.42;;
59766;SDS011;46248;58.364;25.582;2022-07-09T15:52:56;1.50;;;1.35;;
59766;SDS011;46248;58.364;25.582;2022-07-09T15:56:18;1.88;;;1.20;;
59766;SDS011;46248;58.364;25.582;2022-07-09T15:59:43;3.15;;;2.58;;
59766;SDS011;46248;58.364;25.582;2022-07-09T16:03:06;3.22;;;1.10;;
59766;SDS011;46248;58.364;25.582;2022-07-09T16:06:28;2.92;;;1.08;;
59766;SDS011;46248;58.364;25.582;2022-07-09T16:09:50;1.38;;;0.82;;
59766;SDS011;46248;58.364;25.582;2022-07-09T16:13:12;11.15;;;2.13;;
59766;SDS011;46248;58.364;25.582;2022-07-09T16:16:35;1.77;;;0.70;;
59766;SDS011;46248;58.364;25.582;2022-07-09T16:19:59;3.47;;;1.95;;
59766;SDS011;46248;58.364;25.582;2022-07-09T16:23:22;3.47;;;1.05;;
59766;SDS011;46248;58.364;25.582;2022-07-09T16:26:44;2.22;;;1.20;;
59766;SDS011;46248;58.364;25.582;2022-07-09T16:30:06;1.67;;;0.95;;
59766;SDS011;46248;58.364;25.582;2022-07-09T16:33:30;2.40;;;0.90;;
59766;SDS011;46248;58.364;25.582;2022-07-09T16:36:54;1.15;;;1.08;;
59766;SDS011;46248;58.364;25.582;2022-07-09T16:40:16;1.67;;;1.58;;
59766;SDS011;46248;58.364;25.582;2022-07-09T16:43:38;1.85;;;1.08;;
59766;SDS011;46248;58.364;25.582;2022-07-09T16:46:59;2.28;;;1.60;;
59766;SDS011;46248;58.364;25.582;2022-07-09T16:50:21;2.05;;;1.50;;
59766;SDS011;46248;58.364;25.582;2022-07-09T16:53:45;3.85;;;1.85;;
59766;SDS011;46248;58.364;25.582;2022-07-09T16:57:09;1.50;;;1.20;;
59766;SDS011;46248;58.364;25.582;2022-07-09T17:00:31;4.20;;;1.98;;
59766;SDS011;46248;58.364;25.582;2022-07-09T17:03:52;3.47;;;1.30;;
59766;SDS011;46248;58.364;25.582;2022-07-09T17:07:15;3.10;;;2.20;;
59766;SDS011;46248;58.364;25.582;2022-07-09T17:10:38;1.60;;;1.40;;
59766;SDS011;46248;58.364;25.582;2022-07-09T17:14:01;4.82;;;2.05;;
59766;SDS011;46248;58.364;25.582;2022-07-09T17:17:23;1.90;;;1.45;;
59766;SDS011;46248;58.364;25.582;2022-07-09T17:20:44;2.10;;;1.60;;
59766;SDS011;46248;58.364;25.582;2022-07-09T17:24:07;5.50;;;1.60;;
59766;SDS011;46248;58.364;25.582;2022-07-09T17:27:30;3.60;;;2.53;;
59766;SDS011;46248;58.364;25.582;2022-07-09T17:30:52;2.78;;;1.40;;
59766;SDS011;46248;58.364;25.582;2022-07-09T17:34:15;1.98;;;1.58;;
59766;SDS011;46248;58.364;25.582;2022-07-09T17:37:37;2.25;;;1.20;;
59766;SDS011;46248;58.364;25.582;2022-07-09T17:40:59;5.18;;;1.52;;
59766;SDS011;46248;58.364;25.582;2022-07-09T17:44:22;4.70;;;1.70;;
59766;SDS011;46248;58.364;25.582;2022-07-09T17:47:46;2.13;;;1.40;;
59766;SDS011;46248;58.364;25.582;2022-07-09T17:51:09;4.28;;;1.23;;
59766;SDS011;46248;58.364;25.582;2022-07-09T17:54:32;4.00;;;1.40;;
59766;SDS011;46248;58.364;25.582;2022-07-09T17:57:55;2.08;;;1.30;;
59766;SDS011;46248;58.364;25.582;2022-07-09T18:01:19;2.83;;;1.00;;
59766;SDS011;46248;58.364;25.582;2022-07-09T18:04:41;3.47;;;1.52;;
59766;SDS011;46248;58.364;25.582;2022-07-09T18:08:03;1.95;;;1.15;;
59766;SDS011;46248;58.364;25.582;2022-07-09T18:11:26;3.00;;;1.27;;
59766;SDS011;46248;58.364;25.582;2022-07-09T18:14:48;4.50;;;1.20;;
59766;SDS011;46248;58.364;25.582;2022-07-09T18:18:11;2.47;;;1.60;;
59766;SDS011;46248;58.364;25.582;2022-07-09T18:21:35;2.95;;;1.67;;
59766;SDS011;46248;58.364;25.582;2022-07-09T18:24:57;3.08;;;1.30;;
59766;SDS011;46248;58.364;25.582;2022-07-09T18:28:19;3.25;;;1.70;;
59766;SDS011;46248;58.364;25.582;2022-07-09T18:31:41;1.90;;;1.65;;
59766;SDS011;46248;58.364;25.582;2022-07-09T18:35:05;2.75;;;1.70;;
59766;SDS011;46248;58.364;25.582;2022-07-09T18:38:27;1.98;;;1.60;;
59766;SDS011;46248;58.364;25.582;2022-07-09T18:41:49;1.55;;;1.35;;
59766;SDS011;46248;58.364;25.582;2022-07-09T18:45:11;4.68;;;1.70;;
59766;SDS011;46248;58.364;25.582;2022-07-09T18:48:33;3.53;;;1.65;;
59766;SDS011;46248;58.364;25.582;2022-07-09T18:51:57;5.13;;;2.50;;
59766;SDS011;46248;58.364;25.582;2022-07-09T18:55:19;3.38;;;1.80;;
59766;SDS011;46248;58.364;25.582;2022-07-09T18:58:41;2.25;;;1.83;;
59766;SDS011;46248;58.364;25.582;2022-07-09T19:02:03;2.30;;;1.50;;
59766;SDS011;46248;58.364;25.582;2022-07-09T19:05:25;1.98;;;1.50;;
59766;SDS011;46248;58.364;25.582;2022-07-09T19:08:48;3.30;;;1.52;;
59766;SDS011;46248;58.364;25.582;2022-07-09T19:12:11;2.90;;;1.40;;
59766;SDS011;46248;58.364;25.582;2022-07-09T19:15:32;2.67;;;1.50;;
59766;SDS011;46248;58.364;25.582;2022-07-09T19:18:54;1.95;;;1.33;;
59766;SDS011;46248;58.364;25.582;2022-07-09T19:22:19;5.20;;;1.30;;
59766;SDS011;46248;58.364;25.582;2022-07-09T19:25:42;2.13;;;1.48;;
59766;SDS011;46248;58.364;25.582;2022-07-09T19:29:04;6.68;;;1.60;;
59766;SDS011;46248;58.364;25.582;2022-07-09T19:32:27;4.18;;;1.30;;
59766;SDS011;46248;58.364;25.582;2022-07-09T19:36:07;1.67;;;1.05;;
59766;SDS011;46248;58.364;25.582;2022-07-09T19:39:29;3.35;;;1.40;;
59766;SDS011;46248;58.364;25.582;2022-07-09T19:42:52;1.75;;;1.00;;
59766;SDS011;46248;58.364;25.582;2022-07-09T19:46:14;1.15;;;1.02;;
59766;SDS011;46248;58.364;25.582;2022-07-09T19:49:36;1.50;;;1.20;;
59766;SDS011;46248;58.364;25.582;2022-07-09T19:52:58;1.60;;;1.35;;
59766;SDS011;46248;58.364;25.582;2022-07-09T19:56:20;3.58;;;1.23;;
59766;SDS011;46248;58.364;25.582;2022-07-09T19:59:52;2.75;;;1.20;;
59766;SDS011;46248;58.364;25.582;2022-07-09T20:03:14;2.38;;;1.00;;
59766;SDS011;46248;58.364;25.582;2022-07-09T20:06:36;4.30;;;1.70;;